sensor_id;sensor_type;location;lat;lon;timestamp;pressure;altitude;pressure_sealevel;temperature;humidity
50268;BME280;36153;50.960;6.220;2023-02-04T00:02:05;102216.56;;;10.89;66.34
50268;BME280;36153;50.960;6.220;2023-02-04T00:05:08;102210.78;;;10.98;65.94
50268;BME280;36153;50.960;6.220;2023-02-04T00:08:10;102205.13;;;10.85;66.45
50268;BME280;36153;50.960;6.220;2023-02-04T00:11:11;102206.41;;;10.97;66.29
50268;BME280;36153;50.960;6.220;2023-02-04T00:14:13;102207.97;;;10.91;66.29
50268;BME280;36153;50.960;6.220;2023-02-04T00:17:14;102210.16;;;10.81;66.67
50268;BME280;36153;50.960;6.220;2023-02-04T00:20:16;102210.16;;;10.81;66.85
50268;BME280;36153;50.960;6.220;2023-02-04T00:23:19;102204.34;;;10.88;66.39
50268;BME280;36153;50.960;6.220;2023-02-04T00:26:21;102208.03;;;10.70;67.29
50268;BME280;36153;50.960;6.220;2023-02-04T00:29:22;102201.75;;;10.88;66.62
50268;BME280;36153;50.960;6.220;2023-02-04T00:32:24;102205.13;;;10.85;66.58
50268;BME280;36153;50.960;6.220;2023-02-04T00:35:25;102203.94;;;10.77;66.77
50268;BME280;36153;50.960;6.220;2023-02-04T00:38:27;102204.13;;;10.82;66.20
50268;BME280;36153;50.960;6.220;2023-02-04T00:41:27;102199.16;;;10.65;66.26
50268;BME280;36153;50.960;6.220;2023-02-04T00:44:28;102194.28;;;10.52;67.21
50268;BME280;36153;50.960;6.220;2023-02-04T00:47:28;102196.66;;;10.46;66.72
50268;BME280;36153;50.960;6.220;2023-02-04T00:50:28;102190.38;;;10.63;66.77
50268;BME280;36153;50.960;6.220;2023-02-04T00:53:29;102195.97;;;10.50;66.74
50268;BME280;36153;50.960;6.220;2023-02-04T00:56:29;102209.56;;;10.65;66.44
50268;BME280;36153;50.960;6.220;2023-02-04T00:59:29;102214.78;;;10.65;66.49
50268;BME280;36153;50.960;6.220;2023-02-04T01:02:30;102218.47;;;10.70;65.87
50268;BME280;36153;50.960;6.220;2023-02-04T01:05:31;102227.81;;;10.65;66.48
50268;BME280;36153;50.960;6.220;2023-02-04T01:08:31;102224.44;;;10.68;65.84
50268;BME280;36153;50.960;6.220;2023-02-04T01:11:32;102227.00;;;10.66;65.96
50268;BME280;36153;50.960;6.220;2023-02-04T01:14:32;102226.56;;;10.78;65.47
50268;BME280;36153;50.960;6.220;2023-02-04T01:17:32;102237.47;;;10.68;65.77
50268;BME280;36153;50.960;6.220;2023-02-04T01:20:33;102243.53;;;10.46;66.13
50268;BME280;36153;50.960;6.220;2023-02-04T01:23:33;102253.31;;;10.74;65.59
50268;BME280;36153;50.960;6.220;2023-02-04T01:26:33;102260.84;;;10.66;65.35
50268;BME280;36153;50.960;6.220;2023-02-04T01:29:33;102267.25;;;10.74;65.93
50268;BME280;36153;50.960;6.220;2023-02-04T01:32:34;102262.63;;;10.46;66.45
50268;BME280;36153;50.960;6.220;2023-02-04T01:35:34;102268.50;;;10.63;65.92
50268;BME280;36153;50.960;6.220;2023-02-04T01:38:35;102271.13;;;10.63;65.97
50268;BME280;36153;50.960;6.220;2023-02-04T01:41:35;102277.03;;;10.59;66.21
50268;BME280;36153;50.960;6.220;2023-02-04T01:44:35;102273.72;;;10.63;66.26
50268;BME280;36153;50.960;6.220;2023-02-04T01:47:36;102280.47;;;10.58;65.49
50268;BME280;36153;50.960;6.220;2023-02-04T01:50:37;102282.56;;;10.67;65.82
50268;BME280;36153;50.960;6.220;2023-02-04T01:53:38;102286.19;;;10.70;65.30
50268;BME280;36153;50.960;6.220;2023-02-04T01:56:42;102289.50;;;10.66;65.95
50268;BME280;36153;50.960;6.220;2023-02-04T01:59:45;102279.94;;;10.67;65.43
50268;BME280;36153;50.960;6.220;2023-02-04T02:02:48;102280.31;;;10.76;65.27
50268;BME280;36153;50.960;6.220;2023-02-04T02:05:52;102287.81;;;10.68;64.93
50268;BME280;36153;50.960;6.220;2023-02-04T02:08:54;102279.72;;;10.61;65.21
50268;BME280;36153;50.960;6.220;2023-02-04T02:11:55;102280.19;;;10.73;64.92
50268;BME280;36153;50.960;6.220;2023-02-04T02:14:56;102277.13;;;10.61;65.36
50268;BME280;36153;50.960;6.220;2023-02-04T02:17:56;102275.38;;;10.61;65.16
50268;BME280;36153;50.960;6.220;2023-02-04T02:20:59;102277.41;;;10.68;65.59
50268;BME280;36153;50.960;6.220;2023-02-04T02:24:23;102276.63;;;10.71;64.97
50268;BME280;36153;50.960;6.220;2023-02-04T02:27:24;102279.47;;;10.77;64.83
50268;BME280;36153;50.960;6.220;2023-02-04T02:30:26;102282.28;;;10.82;65.04
50268;BME280;36153;50.960;6.220;2023-02-04T02:33:28;102294.72;;;10.89;64.27
50268;BME280;36153;50.960;6.220;2023-02-04T02:36:28;102301.00;;;10.94;64.36
50268;BME280;36153;50.960;6.220;2023-02-04T02:39:29;102301.16;;;10.76;64.69
50268;BME280;36153;50.960;6.220;2023-02-04T02:42:30;102304.06;;;10.84;64.69
50268;BME280;36153;50.960;6.220;2023-02-04T02:45:31;102315.28;;;10.83;64.48
50268;BME280;36153;50.960;6.220;2023-02-04T02:48:32;102318.97;;;10.88;64.03
50268;BME280;36153;50.960;6.220;2023-02-04T02:51:32;102305.84;;;10.85;64.57
50268;BME280;36153;50.960;6.220;2023-02-04T02:54:33;102312.78;;;10.84;64.66
50268;BME280;36153;50.960;6.220;2023-02-04T02:57:33;102308.34;;;10.82;64.37
50268;BME280;36153;50.960;6.220;2023-02-04T03:00:34;102312.56;;;10.80;63.79
50268;BME280;36153;50.960;6.220;2023-02-04T03:03:37;102313.78;;;10.88;64.37
50268;BME280;36153;50.960;6.220;2023-02-04T03:06:39;102316.38;;;10.88;64.20
50268;BME280;36153;50.960;6.220;2023-02-04T03:09:40;102325.28;;;10.93;64.20
50268;BME280;36153;50.960;6.220;2023-02-04T03:12:40;102327.28;;;11.00;64.04
50268;BME280;36153;50.960;6.220;2023-02-04T03:15:41;102335.59;;;10.90;64.01
50268;BME280;36153;50.960;6.220;2023-02-04T03:18:43;102327.22;;;10.99;64.00
50268;BME280;36153;50.960;6.220;2023-02-04T03:21:44;102329.06;;;11.01;64.03
50268;BME280;36153;50.960;6.220;2023-02-04T03:24:44;102337.34;;;10.91;64.25
50268;BME280;36153;50.960;6.220;2023-02-04T03:27:46;102337.53;;;10.96;63.90
50268;BME280;36153;50.960;6.220;2023-02-04T03:30:46;102326.84;;;10.89;63.68
50268;BME280;36153;50.960;6.220;2023-02-04T03:33:55;102335.59;;;10.90;64.06
50268;BME280;36153;50.960;6.220;2023-02-04T03:36:55;102336.06;;;10.81;64.08
50268;BME280;36153;50.960;6.220;2023-02-04T03:39:56;102343.41;;;10.90;64.00
50268;BME280;36153;50.960;6.220;2023-02-04T03:42:56;102341.06;;;10.75;64.08
50268;BME280;36153;50.960;6.220;2023-02-04T03:45:56;102344.31;;;10.92;64.03
50268;BME280;36153;50.960;6.220;2023-02-04T03:48:57;102344.16;;;10.87;63.90
50268;BME280;36153;50.960;6.220;2023-02-04T03:51:57;102350.09;;;10.62;64.60
50268;BME280;36153;50.960;6.220;2023-02-04T03:54:57;102350.31;;;10.89;64.39
50268;BME280;36153;50.960;6.220;2023-02-04T03:57:58;102347.28;;;10.79;64.56
50268;BME280;36153;50.960;6.220;2023-02-04T04:00:58;102350.94;;;10.84;64.24
50268;BME280;36153;50.960;6.220;2023-02-04T04:03:58;102347.28;;;10.79;64.45
50268;BME280;36153;50.960;6.220;2023-02-04T04:06:59;102349.81;;;10.77;64.32
50268;BME280;36153;50.960;6.220;2023-02-04T04:09:59;102348.59;;;10.69;64.81
50268;BME280;36153;50.960;6.220;2023-02-04T04:13:00;102347.72;;;10.68;64.58
50268;BME280;36153;50.960;6.220;2023-02-04T04:16:00;102351.78;;;10.83;64.90
50268;BME280;36153;50.960;6.220;2023-02-04T04:19:02;102356.63;;;10.73;64.75
50268;BME280;36153;50.960;6.220;2023-02-04T04:22:02;102353.06;;;10.71;64.75
50268;BME280;36153;50.960;6.220;2023-02-04T04:25:03;102354.25;;;10.80;64.30
50268;BME280;36153;50.960;6.220;2023-02-04T04:28:04;102351.66;;;10.80;64.50
50268;BME280;36153;50.960;6.220;2023-02-04T04:31:04;102357.84;;;10.82;64.00
50268;BME280;36153;50.960;6.220;2023-02-04T04:34:05;102363.75;;;10.78;64.27
50268;BME280;36153;50.960;6.220;2023-02-04T04:37:05;102365.59;;;10.80;64.30
50268;BME280;36153;50.960;6.220;2023-02-04T04:40:06;102373.19;;;10.75;64.15
50268;BME280;36153;50.960;6.220;2023-02-04T04:43:06;102373.94;;;10.73;64.42
50268;BME280;36153;50.960;6.220;2023-02-04T04:46:07;102374.59;;;10.67;64.88
50268;BME280;36153;50.960;6.220;2023-02-04T04:49:07;102370.16;;;10.86;64.64
50268;BME280;36153;50.960;6.220;2023-02-04T04:52:07;102372.06;;;10.90;64.39
50268;BME280;36153;50.960;6.220;2023-02-04T04:55:08;102368.03;;;10.98;64.24
50268;BME280;36153;50.960;6.220;2023-02-04T04:58:08;102378.88;;;11.09;63.57
50268;BME280;36153;50.960;6.220;2023-02-04T05:01:09;102376.84;;;11.02;63.59
50268;BME280;36153;50.960;6.220;2023-02-04T05:04:09;102373.47;;;11.04;63.69
50268;BME280;36153;50.960;6.220;2023-02-04T05:07:09;102372.44;;;10.78;63.78
50268;BME280;36153;50.960;6.220;2023-02-04T05:10:10;102376.97;;;10.61;64.08
50268;BME280;36153;50.960;6.220;2023-02-04T05:13:11;102381.34;;;10.62;64.54
50268;BME280;36153;50.960;6.220;2023-02-04T05:16:12;102376.13;;;10.62;64.84
50268;BME280;36153;50.960;6.220;2023-02-04T05:19:12;102380.72;;;10.68;64.59
50268;BME280;36153;50.960;6.220;2023-02-04T05:22:12;102380.00;;;10.72;64.41
50268;BME280;36153;50.960;6.220;2023-02-04T05:25:13;102384.66;;;10.58;64.45
50268;BME280;36153;50.960;6.220;2023-02-04T05:28:15;102389.59;;;10.52;64.91
50268;BME280;36153;50.960;6.220;2023-02-04T05:31:16;102395.75;;;10.75;64.80
50268;BME280;36153;50.960;6.220;2023-02-04T05:34:16;102386.53;;;10.83;64.80
50268;BME280;36153;50.960;6.220;2023-02-04T05:37:16;102389.22;;;10.85;64.26
50268;BME280;36153;50.960;6.220;2023-02-04T05:40:20;102394.72;;;10.71;64.53
50268;BME280;36153;50.960;6.220;2023-02-04T05:43:20;102394.56;;;10.67;65.24
50268;BME280;36153;50.960;6.220;2023-02-04T05:46:20;102404.09;;;10.66;64.82
50268;BME280;36153;50.960;6.220;2023-02-04T05:49:21;102409.31;;;10.66;65.10
50268;BME280;36153;50.960;6.220;2023-02-04T05:52:22;102409.41;;;10.69;65.18
50268;BME280;36153;50.960;6.220;2023-02-04T05:55:23;102418.88;;;10.67;65.41
50268;BME280;36153;50.960;6.220;2023-02-04T05:58:23;102420.59;;;10.67;65.00
50268;BME280;36153;50.960;6.220;2023-02-04T06:01:23;102435.72;;;10.75;64.98
50268;BME280;36153;50.960;6.220;2023-02-04T06:04:24;102432.03;;;10.70;65.24
50268;BME280;36153;50.960;6.220;2023-02-04T06:07:24;102432.22;;;10.75;64.90
50268;BME280;36153;50.960;6.220;2023-02-04T06:10:24;102440.16;;;10.78;65.31
50268;BME280;36153;50.960;6.220;2023-02-04T06:13:25;102433.97;;;10.74;65.33
50268;BME280;36153;50.960;6.220;2023-02-04T06:16:25;102441.06;;;10.79;65.14
50268;BME280;36153;50.960;6.220;2023-02-04T06:19:26;102445.44;;;10.80;65.64
50268;BME280;36153;50.960;6.220;2023-02-04T06:22:26;102442.19;;;10.85;64.95
50268;BME280;36153;50.960;6.220;2023-02-04T06:25:26;102442.41;;;10.90;65.10
50268;BME280;36153;50.960;6.220;2023-02-04T06:28:27;102445.19;;;10.73;64.79
50268;BME280;36153;50.960;6.220;2023-02-04T06:31:27;102448.66;;;10.95;64.72
50268;BME280;36153;50.960;6.220;2023-02-04T06:34:27;102452.88;;;10.91;64.86
50268;BME280;36153;50.960;6.220;2023-02-04T06:37:28;102450.66;;;10.80;65.00
50268;BME280;36153;50.960;6.220;2023-02-04T06:40:28;102463.19;;;10.88;65.12
50268;BME280;36153;50.960;6.220;2023-02-04T06:43:28;102467.19;;;11.01;64.62
50268;BME280;36153;50.960;6.220;2023-02-04T06:46:29;102467.19;;;11.01;64.26
50268;BME280;36153;50.960;6.220;2023-02-04T06:49:29;102469.56;;;10.97;64.18
50268;BME280;36153;50.960;6.220;2023-02-04T06:52:29;102473.72;;;11.13;64.50
50268;BME280;36153;50.960;6.220;2023-02-04T06:55:30;102475.63;;;11.17;64.02
50268;BME280;36153;50.960;6.220;2023-02-04T06:58:30;102471.94;;;11.12;63.74
50268;BME280;36153;50.960;6.220;2023-02-04T07:01:31;102472.41;;;11.01;64.00
50268;BME280;36153;50.960;6.220;2023-02-04T07:04:32;102466.56;;;10.86;64.40
50268;BME280;36153;50.960;6.220;2023-02-04T07:07:32;102481.03;;;10.79;64.52
50268;BME280;36153;50.960;6.220;2023-02-04T07:10:33;102481.91;;;10.80;64.80
50268;BME280;36153;50.960;6.220;2023-02-04T07:13:33;102480.34;;;10.83;64.92
50268;BME280;36153;50.960;6.220;2023-02-04T07:16:33;102479.75;;;10.69;65.07
50268;BME280;36153;50.960;6.220;2023-02-04T07:19:34;102481.38;;;10.67;65.46
50268;BME280;36153;50.960;6.220;2023-02-04T07:22:35;102473.72;;;10.70;65.28
50268;BME280;36153;50.960;6.220;2023-02-04T07:25:35;102483.69;;;10.81;65.38
50268;BME280;36153;50.960;6.220;2023-02-04T07:28:37;102484.50;;;10.80;65.25
50268;BME280;36153;50.960;6.220;2023-02-04T07:31:40;102486.31;;;10.81;65.37
50268;BME280;36153;50.960;6.220;2023-02-04T07:34:40;102489.50;;;10.95;65.15
50268;BME280;36153;50.960;6.220;2023-02-04T07:37:40;102487.41;;;10.86;65.25
50268;BME280;36153;50.960;6.220;2023-02-04T07:40:41;102499.91;;;10.73;65.55
50268;BME280;36153;50.960;6.220;2023-02-04T07:43:41;102500.41;;;10.65;65.74
50268;BME280;36153;50.960;6.220;2023-02-04T07:46:41;102508.81;;;10.79;66.31
50268;BME280;36153;50.960;6.220;2023-02-04T07:49:42;102509.19;;;10.88;65.99
50268;BME280;36153;50.960;6.220;2023-02-04T07:52:42;102513.75;;;10.93;65.87
50268;BME280;36153;50.960;6.220;2023-02-04T07:55:42;102519.09;;;10.97;65.93
50268;BME280;36153;50.960;6.220;2023-02-04T07:58:43;102524.94;;;10.91;65.55
50268;BME280;36153;50.960;6.220;2023-02-04T08:01:44;102533.31;;;10.84;66.25
50268;BME280;36153;50.960;6.220;2023-02-04T08:04:44;102528.38;;;10.90;65.35
50268;BME280;36153;50.960;6.220;2023-02-04T08:07:44;102541.13;;;10.84;65.91
50268;BME280;36153;50.960;6.220;2023-02-04T08:10:45;102540.19;;;10.82;65.96
50268;BME280;36153;50.960;6.220;2023-02-04T08:13:45;102543.88;;;10.87;66.07
50268;BME280;36153;50.960;6.220;2023-02-04T08:16:46;102549.75;;;11.02;65.48
50268;BME280;36153;50.960;6.220;2023-02-04T08:19:46;102549.56;;;11.19;64.98
50268;BME280;36153;50.960;6.220;2023-02-04T08:22:46;102545.88;;;11.14;64.86
50268;BME280;36153;50.960;6.220;2023-02-04T08:25:47;102547.22;;;11.25;64.68
50268;BME280;36153;50.960;6.220;2023-02-04T08:28:47;102543.97;;;11.09;64.91
50268;BME280;36153;50.960;6.220;2023-02-04T08:31:47;102551.47;;;11.23;65.29
50268;BME280;36153;50.960;6.220;2023-02-04T08:34:48;102549.63;;;11.41;64.41
50268;BME280;36153;50.960;6.220;2023-02-04T08:37:48;102553.56;;;11.53;64.15
50268;BME280;36153;50.960;6.220;2023-02-04T08:40:49;102562.59;;;11.61;63.96
50268;BME280;36153;50.960;6.220;2023-02-04T08:43:49;102560.94;;;11.63;63.94
50268;BME280;36153;50.960;6.220;2023-02-04T08:46:49;102567.84;;;11.40;64.23
50268;BME280;36153;50.960;6.220;2023-02-04T08:49:50;102571.91;;;11.33;64.58
50268;BME280;36153;50.960;6.220;2023-02-04T08:52:50;102564.66;;;11.47;64.19
50268;BME280;36153;50.960;6.220;2023-02-04T08:55:50;102572.81;;;11.77;63.96
50268;BME280;36153;50.960;6.220;2023-02-04T08:58:51;102580.81;;;11.82;63.36
50268;BME280;36153;50.960;6.220;2023-02-04T09:01:54;102586.97;;;11.84;62.74
50268;BME280;36153;50.960;6.220;2023-02-04T09:04:54;102585.72;;;11.74;62.94
50268;BME280;36153;50.960;6.220;2023-02-04T09:07:55;102583.41;;;12.03;63.11
50268;BME280;36153;50.960;6.220;2023-02-04T09:10:55;102582.34;;;11.98;62.50
50268;BME280;36153;50.960;6.220;2023-02-04T09:13:55;102590.91;;;12.17;62.12
50268;BME280;36153;50.960;6.220;2023-02-04T09:16:56;102590.84;;;12.15;62.10
50268;BME280;36153;50.960;6.220;2023-02-04T09:19:56;102597.38;;;12.26;61.56
50268;BME280;36153;50.960;6.220;2023-02-04T09:22:57;102595.75;;;12.53;61.54
50268;BME280;36153;50.960;6.220;2023-02-04T09:25:57;102605.94;;;12.46;60.81
50268;BME280;36153;50.960;6.220;2023-02-04T09:28:58;102609.84;;;12.58;61.17
50268;BME280;36153;50.960;6.220;2023-02-04T09:31:58;102608.19;;;12.60;60.44
50268;BME280;36153;50.960;6.220;2023-02-04T09:34:58;102610.56;;;12.54;60.05
50268;BME280;36153;50.960;6.220;2023-02-04T09:37:59;102608.13;;;12.58;60.22
50268;BME280;36153;50.960;6.220;2023-02-04T09:41:03;102612.97;;;12.72;60.50
50268;BME280;36153;50.960;6.220;2023-02-04T09:44:11;102604.59;;;12.80;58.82
50268;BME280;36153;50.960;6.220;2023-02-04T09:47:13;102607.44;;;13.12;59.33
50268;BME280;36153;50.960;6.220;2023-02-04T09:50:16;102606.91;;;13.23;58.80
50268;BME280;36153;50.960;6.220;2023-02-04T09:53:22;102605.31;;;13.52;58.07
50268;BME280;36153;50.960;6.220;2023-02-04T09:56:23;102603.66;;;13.54;57.99
50268;BME280;36153;50.960;6.220;2023-02-04T09:59:26;102612.72;;;13.14;59.57
50268;BME280;36153;50.960;6.220;2023-02-04T10:02:28;102621.09;;;12.79;59.57
50268;BME280;36153;50.960;6.220;2023-02-04T10:05:31;102623.44;;;12.96;59.74
50268;BME280;36153;50.960;6.220;2023-02-04T10:08:32;102624.25;;;13.21;58.66
50268;BME280;36153;50.960;6.220;2023-02-04T10:11:35;102622.81;;;13.29;58.48
50268;BME280;36153;50.960;6.220;2023-02-04T10:14:36;102614.22;;;13.57;58.03
50268;BME280;36153;50.960;6.220;2023-02-04T10:17:37;102616.13;;;13.90;56.96
50268;BME280;36153;50.960;6.220;2023-02-04T10:20:37;102624.38;;;14.03;55.63
50268;BME280;36153;50.960;6.220;2023-02-04T10:23:38;102618.72;;;13.61;56.15
50268;BME280;36153;50.960;6.220;2023-02-04T10:26:38;102618.75;;;13.63;56.55
50268;BME280;36153;50.960;6.220;2023-02-04T10:29:39;102622.81;;;13.53;56.94
50268;BME280;36153;50.960;6.220;2023-02-04T10:32:41;102617.75;;;13.59;56.82
50268;BME280;36153;50.960;6.220;2023-02-04T10:35:48;102614.56;;;13.68;55.84
50268;BME280;36153;50.960;6.220;2023-02-04T10:43:17;102625.94;;;13.96;56.35
50268;BME280;36153;50.960;6.220;2023-02-04T10:46:18;102623.31;;;13.69;56.97
50268;BME280;36153;50.960;6.220;2023-02-04T10:49:21;102615.09;;;13.58;56.50
50268;BME280;36153;50.960;6.220;2023-02-04T10:52:33;102616.97;;;13.62;55.96
50268;BME280;36153;50.960;6.220;2023-02-04T10:55:34;102617.38;;;13.74;55.72
50268;BME280;36153;50.960;6.220;2023-02-04T10:58:34;102617.16;;;13.95;54.77
50268;BME280;36153;50.960;6.220;2023-02-04T11:01:35;102612.19;;;13.76;55.28
50268;BME280;36153;50.960;6.220;2023-02-04T11:04:35;102607.09;;;13.80;55.45
50268;BME280;36153;50.960;6.220;2023-02-04T11:07:35;102611.44;;;13.80;55.49
50268;BME280;36153;50.960;6.220;2023-02-04T11:10:36;102610.72;;;13.84;55.43
50268;BME280;36153;50.960;6.220;2023-02-04T11:13:45;102611.75;;;13.62;54.73
50268;BME280;36153;50.960;6.220;2023-02-04T11:16:56;102619.00;;;13.43;56.10
50268;BME280;36153;50.960;6.220;2023-02-04T11:20:14;102617.25;;;13.70;55.49
50268;BME280;36153;50.960;6.220;2023-02-04T11:26:33;102629.28;;;13.92;54.88
50268;BME280;36153;50.960;6.220;2023-02-04T11:29:35;102621.03;;;13.79;54.50
50268;BME280;36153;50.960;6.220;2023-02-04T11:32:37;102617.81;;;14.15;53.61
50268;BME280;36153;50.960;6.220;2023-02-04T11:35:37;102623.50;;;14.31;53.87
50268;BME280;36153;50.960;6.220;2023-02-04T11:38:38;102614.34;;;14.47;52.58
50268;BME280;36153;50.960;6.220;2023-02-04T11:41:43;102614.16;;;14.39;52.05
50268;BME280;36153;50.960;6.220;2023-02-04T11:47:51;102616.31;;;14.54;53.01
50268;BME280;36153;50.960;6.220;2023-02-04T11:50:56;102615.41;;;14.82;52.33
50268;BME280;36153;50.960;6.220;2023-02-04T11:53:57;102613.22;;;14.67;52.41
50268;BME280;36153;50.960;6.220;2023-02-04T11:56:58;102612.19;;;14.93;51.89
50268;BME280;36153;50.960;6.220;2023-02-04T11:59:59;102607.28;;;14.44;52.50
50268;BME280;36153;50.960;6.220;2023-02-04T12:03:02;102609.50;;;14.30;52.46
50268;BME280;36153;50.960;6.220;2023-02-04T12:06:05;102609.91;;;14.44;52.37
50268;BME280;36153;50.960;6.220;2023-02-04T12:12:26;102622.56;;;14.29;51.22
50268;BME280;36153;50.960;6.220;2023-02-04T12:15:32;102610.56;;;14.37;51.53
50268;BME280;36153;50.960;6.220;2023-02-04T12:18:34;102613.69;;;14.24;52.10
50268;BME280;36153;50.960;6.220;2023-02-04T12:21:34;102605.53;;;14.43;51.15
50268;BME280;36153;50.960;6.220;2023-02-04T12:24:35;102611.53;;;14.70;50.98
50268;BME280;36153;50.960;6.220;2023-02-04T12:27:35;102615.81;;;14.98;50.73
50268;BME280;36153;50.960;6.220;2023-02-04T12:30:35;102622.31;;;15.12;50.45
50268;BME280;36153;50.960;6.220;2023-02-04T12:33:36;102617.75;;;15.39;49.75
50268;BME280;36153;50.960;6.220;2023-02-04T12:36:36;102619.47;;;15.36;49.31
50268;BME280;36153;50.960;6.220;2023-02-04T12:39:37;102623.28;;;14.82;49.92
50268;BME280;36153;50.960;6.220;2023-02-04T12:42:37;102627.84;;;14.90;50.34
50268;BME280;36153;50.960;6.220;2023-02-04T12:45:37;102629.56;;;14.59;50.53
50268;BME280;36153;50.960;6.220;2023-02-04T12:48:39;102636.84;;;14.40;50.67
50268;BME280;36153;50.960;6.220;2023-02-04T12:51:40;102630.13;;;14.48;50.56
50268;BME280;36153;50.960;6.220;2023-02-04T12:54:40;102635.56;;;14.55;50.84
50268;BME280;36153;50.960;6.220;2023-02-04T12:57:42;102633.31;;;14.38;51.02
50268;BME280;36153;50.960;6.220;2023-02-04T13:00:43;102632.47;;;15.00;50.14
50268;BME280;36153;50.960;6.220;2023-02-04T13:03:44;102632.34;;;14.95;50.22
50268;BME280;36153;50.960;6.220;2023-02-04T13:06:44;102635.69;;;15.22;49.69
50268;BME280;36153;50.960;6.220;2023-02-04T13:09:44;102631.25;;;15.19;49.40
50268;BME280;36153;50.960;6.220;2023-02-04T13:12:45;102633.88;;;14.58;49.38
50268;BME280;36153;50.960;6.220;2023-02-04T13:15:45;102629.09;;;14.72;49.51
50268;BME280;36153;50.960;6.220;2023-02-04T13:18:46;102624.25;;;14.27;48.68
50268;BME280;36153;50.960;6.220;2023-02-04T13:21:46;102618.31;;;14.32;48.34
50268;BME280;36153;50.960;6.220;2023-02-04T13:24:47;102616.94;;;13.88;47.84
50268;BME280;36153;50.960;6.220;2023-02-04T13:27:47;102613.66;;;13.95;47.43
50268;BME280;36153;50.960;6.220;2023-02-04T13:30:47;102611.44;;;14.07;48.11
50268;BME280;36153;50.960;6.220;2023-02-04T13:33:48;102612.06;;;13.71;48.54
50268;BME280;36153;50.960;6.220;2023-02-04T13:36:48;102610.84;;;13.89;48.19
50268;BME280;36153;50.960;6.220;2023-02-04T13:39:48;102608.75;;;13.77;47.94
50268;BME280;36153;50.960;6.220;2023-02-04T13:42:49;102603.19;;;13.68;48.03
50268;BME280;36153;50.960;6.220;2023-02-04T13:45:49;102606.66;;;13.66;48.17
50268;BME280;36153;50.960;6.220;2023-02-04T13:48:50;102601.81;;;13.52;49.11
50268;BME280;36153;50.960;6.220;2023-02-04T13:51:50;102599.25;;;13.53;49.56
50268;BME280;36153;50.960;6.220;2023-02-04T13:54:50;102596.13;;;13.65;49.75
50268;BME280;36153;50.960;6.220;2023-02-04T13:57:51;102599.97;;;13.76;50.14
50268;BME280;36153;50.960;6.220;2023-02-04T14:00:51;102599.34;;;14.12;49.59
50268;BME280;36153;50.960;6.220;2023-02-04T14:03:56;102600.44;;;14.19;49.89
50268;BME280;36153;50.960;6.220;2023-02-04T14:06:56;102602.44;;;13.99;50.54
50268;BME280;36153;50.960;6.220;2023-02-04T14:09:56;102604.59;;;14.12;50.41
50268;BME280;36153;50.960;6.220;2023-02-04T14:12:57;102603.94;;;13.91;50.41
50268;BME280;36153;50.960;6.220;2023-02-04T14:15:57;102591.53;;;13.85;50.79
50268;BME280;36153;50.960;6.220;2023-02-04T14:18:58;102596.75;;;13.83;50.99
50268;BME280;36153;50.960;6.220;2023-02-04T14:21:58;102591.78;;;13.93;50.72
50268;BME280;36153;50.960;6.220;2023-02-04T14:24:58;102593.81;;;13.74;51.10
50268;BME280;36153;50.960;6.220;2023-02-04T14:27:59;102591.81;;;13.65;51.87
50268;BME280;36153;50.960;6.220;2023-02-04T14:30:59;102591.19;;;13.74;50.99
50268;BME280;36153;50.960;6.220;2023-02-04T14:34:00;102601.66;;;13.74;50.86
50268;BME280;36153;50.960;6.220;2023-02-04T14:37:01;102602.84;;;14.11;49.94
50268;BME280;36153;50.960;6.220;2023-02-04T14:40:02;102605.53;;;14.43;49.71
50268;BME280;36153;50.960;6.220;2023-02-04T14:43:02;102609.94;;;14.46;50.06
50268;BME280;36153;50.960;6.220;2023-02-04T14:46:03;102615.19;;;14.46;50.17
50268;BME280;36153;50.960;6.220;2023-02-04T14:49:04;102606.38;;;14.42;50.99
50268;BME280;36153;50.960;6.220;2023-02-04T14:52:04;102613.78;;;14.27;51.30
50268;BME280;36153;50.960;6.220;2023-02-04T14:55:05;102615.88;;;14.10;51.50
50268;BME280;36153;50.960;6.220;2023-02-04T14:58:05;102623.31;;;13.96;51.66
50268;BME280;36153;50.960;6.220;2023-02-04T15:01:06;102612.03;;;13.98;51.65
50268;BME280;36153;50.960;6.220;2023-02-04T15:04:06;102616.47;;;14.01;51.54
50268;BME280;36153;50.960;6.220;2023-02-04T15:07:07;102613.00;;;14.02;50.80
50268;BME280;36153;50.960;6.220;2023-02-04T15:10:08;102623.63;;;14.07;50.79
50268;BME280;36153;50.960;6.220;2023-02-04T15:13:08;102632.00;;;13.95;51.20
50268;BME280;36153;50.960;6.220;2023-02-04T15:16:09;102633.53;;;14.15;51.29
50268;BME280;36153;50.960;6.220;2023-02-04T15:19:11;102634.34;;;14.43;50.33
50268;BME280;36153;50.960;6.220;2023-02-04T15:22:11;102640.78;;;13.97;51.09
50268;BME280;36153;50.960;6.220;2023-02-04T15:25:12;102636.22;;;14.19;50.74
50268;BME280;36153;50.960;6.220;2023-02-04T15:28:12;102634.06;;;14.05;50.84
50268;BME280;36153;50.960;6.220;2023-02-04T15:31:13;102633.00;;;14.00;51.15
50268;BME280;36153;50.960;6.220;2023-02-04T15:34:13;102643.25;;;13.92;51.38
50268;BME280;36153;50.960;6.220;2023-02-04T15:37:13;102637.25;;;13.95;50.92
50268;BME280;36153;50.960;6.220;2023-02-04T15:40:14;102638.41;;;13.77;51.39
50268;BME280;36153;50.960;6.220;2023-02-04T15:43:14;102641.19;;;13.82;51.24
50268;BME280;36153;50.960;6.220;2023-02-04T15:46:15;102642.75;;;14.04;50.69
50268;BME280;36153;50.960;6.220;2023-02-04T15:49:15;102647.84;;;13.99;50.34
50268;BME280;36153;50.960;6.220;2023-02-04T15:52:15;102643.75;;;14.08;50.16
50268;BME280;36153;50.960;6.220;2023-02-04T15:55:16;102645.94;;;13.94;50.33
50268;BME280;36153;50.960;6.220;2023-02-04T15:58:17;102634.44;;;13.90;50.15
50268;BME280;36153;50.960;6.220;2023-02-04T16:01:17;102637.88;;;13.88;50.59